createdAt,value
2018-07-01T00:02:15.307Z,0.93
2018-07-01T00:04:44.183Z,1.20
2018-07-01T00:07:13.200Z,1.37
2018-07-01T00:09:42.237Z,1.30
2018-07-01T00:12:11.156Z,1.20
2018-07-01T00:14:40.108Z,1.10
2018-07-01T00:17:09.016Z,1.30
2018-07-01T00:19:38.101Z,1.03
2018-07-01T00:22:07.037Z,1.50
2018-07-01T00:24:35.912Z,1.30
2018-07-01T00:27:05.000Z,1.00
2018-07-01T00:29:33.887Z,1.50
2018-07-01T00:32:02.877Z,1.10
2018-07-01T00:34:31.868Z,0.93
2018-07-01T00:37:00.868Z,1.20
2018-07-01T00:39:30.325Z,1.30
2018-07-01T00:41:59.491Z,0.97
2018-07-01T00:44:28.472Z,1.10
2018-07-01T00:46:57.385Z,1.10
2018-07-01T00:49:26.261Z,1.00
2018-07-01T00:51:55.184Z,1.23
2018-07-01T00:54:24.077Z,1.20
2018-07-01T00:56:53.067Z,0.87
2018-07-01T00:59:21.957Z,1.20
2018-07-01T01:01:50.895Z,1.00
2018-07-01T01:04:19.847Z,0.93
2018-07-01T01:06:48.739Z,1.10
2018-07-01T01:09:17.656Z,1.10
2018-07-01T01:11:46.552Z,1.00
2018-07-01T01:14:15.488Z,1.13
2018-07-01T01:16:44.649Z,1.20
2018-07-01T01:19:13.551Z,1.50
2018-07-01T01:21:42.488Z,1.00
2018-07-01T01:24:11.643Z,1.20
2018-07-01T01:26:40.531Z,1.00
2018-07-01T01:29:09.514Z,1.40
2018-07-01T01:31:38.349Z,1.30
2018-07-01T01:34:07.408Z,0.90
2018-07-01T01:36:36.348Z,1.10
2018-07-01T01:39:08.247Z,1.20
2018-07-01T01:41:37.169Z,1.10
2018-07-01T01:44:06.125Z,1.20
2018-07-01T01:46:34.941Z,1.10
2018-07-01T01:49:03.861Z,1.20
2018-07-01T01:51:32.740Z,1.10
2018-07-01T01:54:01.696Z,1.23
2018-07-01T01:56:30.766Z,1.20
2018-07-01T01:59:00.023Z,1.20
2018-07-01T02:01:28.931Z,1.13
2018-07-01T02:03:57.959Z,1.17
2018-07-01T02:06:26.815Z,1.30
2018-07-01T02:08:55.684Z,1.43
2018-07-01T02:11:24.536Z,1.23
2018-07-01T02:13:53.390Z,1.60
2018-07-01T02:16:22.304Z,1.43
2018-07-01T02:18:51.267Z,1.03
2018-07-01T02:21:20.200Z,1.40
2018-07-01T02:23:49.091Z,1.13
2018-07-01T02:26:17.984Z,1.17
2018-07-01T02:28:46.894Z,1.37
2018-07-01T02:31:15.795Z,1.50
2018-07-01T02:33:44.717Z,1.40
2018-07-01T02:36:13.676Z,1.20
2018-07-01T02:38:42.641Z,1.57
2018-07-01T02:41:11.587Z,1.30
2018-07-01T02:43:40.519Z,1.23
2018-07-01T02:46:09.179Z,1.43
2018-07-01T02:48:37.919Z,1.30
2018-07-01T02:51:06.940Z,1.20
2018-07-01T02:53:35.795Z,1.23
2018-07-01T02:56:04.711Z,1.30
2018-07-01T02:58:33.596Z,1.33
2018-07-01T03:01:02.520Z,1.30
2018-07-01T03:03:31.399Z,1.67
2018-07-01T03:06:00.579Z,1.40
2018-07-01T03:08:29.761Z,1.43
2018-07-01T03:10:58.650Z,1.50
2018-07-01T03:13:27.577Z,1.40
2018-07-01T03:15:56.266Z,1.20
2018-07-01T03:18:24.961Z,1.13
2018-07-01T03:20:53.852Z,1.47
2018-07-01T03:23:22.792Z,1.20
2018-07-01T03:25:51.826Z,1.43
2018-07-01T03:28:20.490Z,1.20
2018-07-01T03:30:49.225Z,1.37
2018-07-01T03:33:18.119Z,1.30
2018-07-01T03:35:47.604Z,1.37
2018-07-01T03:38:16.364Z,1.27
2018-07-01T03:40:45.239Z,1.30
2018-07-01T03:43:14.111Z,1.30
2018-07-01T03:45:43.138Z,1.23
2018-07-01T03:48:11.993Z,1.30
2018-07-01T03:50:40.917Z,1.10
2018-07-01T03:53:09.814Z,1.10
2018-07-01T03:55:38.750Z,1.10
2018-07-01T03:58:07.636Z,1.20
2018-07-01T04:00:36.582Z,0.87
2018-07-01T04:03:05.368Z,1.00
2018-07-01T04:05:34.327Z,0.97
2018-07-01T04:08:03.260Z,1.00
2018-07-01T04:10:32.096Z,1.23
2018-07-01T04:13:01.029Z,1.13
2018-07-01T04:15:29.970Z,1.20
2018-07-01T04:17:58.835Z,1.00
2018-07-01T04:20:27.687Z,0.90
2018-07-01T04:22:56.644Z,0.90
2018-07-01T04:25:25.503Z,1.10
2018-07-01T04:27:54.402Z,1.00
2018-07-01T04:30:23.271Z,1.03
2018-07-01T04:32:52.181Z,1.00
2018-07-01T04:35:21.107Z,1.10
2018-07-01T04:37:49.977Z,0.80
2018-07-01T04:40:18.860Z,1.20
2018-07-01T04:42:47.851Z,1.23
2018-07-01T04:45:16.708Z,1.33
2018-07-01T04:47:45.562Z,1.57
2018-07-01T04:50:14.436Z,2.13
2018-07-01T04:52:43.346Z,1.40
2018-07-01T04:55:12.327Z,1.27
2018-07-01T04:57:41.168Z,1.17
2018-07-01T05:00:10.112Z,1.50
2018-07-01T05:02:38.996Z,1.20
2018-07-01T05:05:07.953Z,1.27
2018-07-01T05:07:37.304Z,0.90
2018-07-01T05:10:06.195Z,0.87
2018-07-01T05:12:35.195Z,1.00
2018-07-01T05:15:04.310Z,0.90
2018-07-01T05:17:33.240Z,1.30
2018-07-01T05:20:02.201Z,0.93
2018-07-01T05:22:31.132Z,0.87
2018-07-01T05:25:00.339Z,0.97
2018-07-01T05:27:29.532Z,1.00
2018-07-01T05:29:58.424Z,1.00
2018-07-01T05:32:27.376Z,1.00
2018-07-01T05:34:56.276Z,0.80
2018-07-01T05:37:25.243Z,0.70
2018-07-01T05:39:53.900Z,0.87
2018-07-01T05:42:22.576Z,1.00
2018-07-01T05:44:51.485Z,0.87
2018-07-01T05:47:20.399Z,0.87
2018-07-01T05:49:49.280Z,0.80
2018-07-01T05:52:17.995Z,1.10
2018-07-01T05:54:46.688Z,0.93
2018-07-01T05:57:15.638Z,0.90
2018-07-01T05:59:44.507Z,0.77
2018-07-01T06:02:13.412Z,0.80
2018-07-01T06:04:42.522Z,0.80
2018-07-01T06:07:11.833Z,0.87
2018-07-01T06:09:40.695Z,1.10
2018-07-01T06:12:09.611Z,0.80
2018-07-01T06:14:38.527Z,0.77
2018-07-01T06:17:07.420Z,1.07
2018-07-01T06:19:36.556Z,0.97
2018-07-01T06:22:05.559Z,0.80
2018-07-01T06:24:34.546Z,0.80
2018-07-01T06:27:03.468Z,0.83
2018-07-01T06:29:32.459Z,1.00
2018-07-01T06:32:01.461Z,1.07
2018-07-01T06:34:30.456Z,0.90
2018-07-01T06:36:59.495Z,0.80
2018-07-01T06:39:28.541Z,0.90
2018-07-01T06:41:57.468Z,0.80
2018-07-01T06:44:26.526Z,0.70
2018-07-01T06:46:55.391Z,0.80
2018-07-01T06:49:24.674Z,0.80
2018-07-01T06:51:53.553Z,0.70
2018-07-01T06:54:25.351Z,0.90
2018-07-01T06:56:54.579Z,1.07
2018-07-01T06:59:23.505Z,0.73
2018-07-01T07:01:52.456Z,0.80
2018-07-01T07:04:21.473Z,0.80
2018-07-01T07:06:50.439Z,0.77
2018-07-01T07:09:19.334Z,0.60
2018-07-01T07:11:48.372Z,0.60
2018-07-01T07:14:17.395Z,0.70
2018-07-01T07:16:46.380Z,0.83
2018-07-01T07:19:15.284Z,0.80
2018-07-01T07:21:44.280Z,0.70
2018-07-01T07:24:13.963Z,0.63
2018-07-01T07:26:42.962Z,0.90
2018-07-01T07:29:11.863Z,0.83
2018-07-01T07:31:40.782Z,0.73
2018-07-01T07:34:09.881Z,0.73
2018-07-01T07:36:38.807Z,1.17
2018-07-01T07:39:08.477Z,0.60
2018-07-01T07:41:37.388Z,0.80
2018-07-01T07:44:06.413Z,0.70
2018-07-01T07:46:35.431Z,0.80
2018-07-01T07:49:04.580Z,0.70
2018-07-01T07:51:33.543Z,0.80
2018-07-01T07:54:02.574Z,0.67
2018-07-01T07:56:31.508Z,0.63
2018-07-01T07:59:00.525Z,1.13
2018-07-01T08:01:29.192Z,1.00
2018-07-01T08:03:57.888Z,0.80
2018-07-01T08:06:26.944Z,0.80
2018-07-01T08:08:56.174Z,0.80
2018-07-01T08:11:25.192Z,0.60
2018-07-01T08:13:54.516Z,0.90
2018-07-01T08:16:23.438Z,0.60
2018-07-01T08:18:52.544Z,0.80
2018-07-01T08:21:21.636Z,0.87
2018-07-01T08:23:50.576Z,0.50
2018-07-01T08:26:19.503Z,0.70
2018-07-01T08:28:48.581Z,0.63
2018-07-01T08:31:17.530Z,1.20
2018-07-01T08:33:46.497Z,1.10
2018-07-01T08:36:15.409Z,0.77
2018-07-01T08:38:44.126Z,0.80
2018-07-01T08:41:13.041Z,0.70
2018-07-01T08:43:41.864Z,0.60
2018-07-01T08:46:10.842Z,0.50
2018-07-01T08:48:40.974Z,0.70
2018-07-01T08:51:09.898Z,0.70
2018-07-01T08:53:38.907Z,0.87
2018-07-01T08:56:07.850Z,0.80
2018-07-01T08:58:36.756Z,0.63
2018-07-01T09:01:05.758Z,0.80
2018-07-01T09:03:34.688Z,0.90
2018-07-01T09:06:03.910Z,0.50
2018-07-01T09:08:32.836Z,0.83
2018-07-01T09:11:01.693Z,0.60
2018-07-01T09:13:30.635Z,0.60
2018-07-01T09:15:59.512Z,0.60
2018-07-01T09:18:28.424Z,0.70
2018-07-01T09:20:57.314Z,0.70
2018-07-01T09:23:26.237Z,1.00
2018-07-01T09:25:55.229Z,0.60
2018-07-01T09:28:24.207Z,0.93
2018-07-01T09:30:53.127Z,0.97
2018-07-01T09:33:22.106Z,0.80
2018-07-01T09:35:51.012Z,0.80
2018-07-01T09:38:20.193Z,0.70
2018-07-01T09:40:49.092Z,0.60
2018-07-01T09:43:18.064Z,0.50
2018-07-01T09:45:46.879Z,0.80
2018-07-01T09:48:15.781Z,0.63
2018-07-01T09:50:44.867Z,0.80
2018-07-01T09:53:13.611Z,0.73
2018-07-01T09:55:42.524Z,0.60
2018-07-01T09:58:11.478Z,0.60
2018-07-01T10:00:40.689Z,0.80
2018-07-01T10:03:09.918Z,0.60
2018-07-01T10:05:39.075Z,0.73
2018-07-01T10:08:08.057Z,0.73
2018-07-01T10:10:36.988Z,0.80
2018-07-01T10:13:05.951Z,0.50
2018-07-01T10:15:34.884Z,0.50
2018-07-01T10:18:04.408Z,0.70
2018-07-01T10:20:33.363Z,0.60
2018-07-01T10:23:02.296Z,0.50
2018-07-01T10:25:31.248Z,0.50
2018-07-01T10:28:00.160Z,0.70
2018-07-01T10:30:29.164Z,0.60
2018-07-01T10:32:58.172Z,0.53
2018-07-01T10:35:27.113Z,0.67
2018-07-01T10:37:56.008Z,0.73
2018-07-01T10:40:25.012Z,0.60
2018-07-01T10:42:53.657Z,0.60
2018-07-01T10:45:22.363Z,0.60
2018-07-01T10:47:51.263Z,0.53
2018-07-01T10:50:20.367Z,0.50
2018-07-01T10:52:49.326Z,0.73
2018-07-01T10:55:18.493Z,0.70
2018-07-01T10:57:47.437Z,0.73
2018-07-01T11:00:16.406Z,0.70
2018-07-01T11:02:45.295Z,0.60
2018-07-01T11:05:14.206Z,1.13
2018-07-01T11:07:43.146Z,0.60
2018-07-01T11:10:12.064Z,0.60
2018-07-01T11:12:40.984Z,0.67
2018-07-01T11:15:10.042Z,0.60
2018-07-01T11:17:38.951Z,0.90
2018-07-01T11:20:07.889Z,1.07
2018-07-01T11:22:36.832Z,0.50
2018-07-01T11:25:06.019Z,0.80
2018-07-01T11:27:34.997Z,0.77
2018-07-01T11:30:04.412Z,0.50
2018-07-01T11:32:33.356Z,0.73
2018-07-01T11:35:02.597Z,0.60
2018-07-01T11:37:31.571Z,0.80
2018-07-01T11:40:00.557Z,0.97
2018-07-01T11:42:29.480Z,0.60
2018-07-01T11:44:58.389Z,0.50
2018-07-01T11:47:27.292Z,0.70
2018-07-01T11:49:56.205Z,0.80
2018-07-01T11:52:25.149Z,0.80
2018-07-01T11:54:54.095Z,0.40
2018-07-01T11:57:23.224Z,0.60
2018-07-01T11:59:52.123Z,1.30
2018-07-01T12:02:21.011Z,0.70
2018-07-01T12:05:02.953Z,0.57
2018-07-01T12:07:18.787Z,0.70
2018-07-01T12:09:47.671Z,0.57
2018-07-01T12:12:16.578Z,1.00
2018-07-01T12:14:45.548Z,0.60
2018-07-01T12:17:14.509Z,0.50
2018-07-01T12:19:43.404Z,0.80
2018-07-01T12:22:12.624Z,1.00
2018-07-01T12:24:41.831Z,0.73
2018-07-01T12:27:10.825Z,0.83
2018-07-01T12:29:39.771Z,2.53
2018-07-01T12:32:08.692Z,2.50
2018-07-01T12:34:37.676Z,1.23
2018-07-01T12:37:06.589Z,1.20
2018-07-01T12:39:35.599Z,0.90
2018-07-01T12:42:04.921Z,1.13
2018-07-01T12:44:33.954Z,0.70
2018-07-01T12:47:02.960Z,0.67
2018-07-01T12:49:32.048Z,0.97
2018-07-01T12:52:01.123Z,0.80
2018-07-01T12:54:30.179Z,0.83
2018-07-01T12:56:59.003Z,0.70
2018-07-01T12:59:28.025Z,0.80
2018-07-01T13:01:57.102Z,0.73
2018-07-01T13:04:25.933Z,0.60
2018-07-01T13:06:54.892Z,0.70
2018-07-01T13:09:23.766Z,0.70
2018-07-01T13:11:52.739Z,1.00
2018-07-01T13:14:21.609Z,0.67
2018-07-01T13:16:50.519Z,0.50
2018-07-01T13:19:19.476Z,0.70
2018-07-01T13:21:48.450Z,0.40
2018-07-01T13:24:17.364Z,0.70
2018-07-01T13:26:46.248Z,0.87
2018-07-01T13:29:15.252Z,0.87
2018-07-01T13:31:44.143Z,0.77
2018-07-01T13:34:13.036Z,0.67
2018-07-01T13:36:41.924Z,1.00
2018-07-01T13:39:10.809Z,0.60
2018-07-01T13:41:39.688Z,0.80
2018-07-01T13:44:08.663Z,0.80
2018-07-01T13:46:37.723Z,0.70
2018-07-01T13:49:06.714Z,0.60
2018-07-01T13:51:35.612Z,0.70
2018-07-01T13:54:04.757Z,0.73
2018-07-01T13:56:33.701Z,0.70
2018-07-01T13:59:02.607Z,0.70
2018-07-01T14:01:31.567Z,0.87
2018-07-01T14:04:00.579Z,0.70
2018-07-01T14:06:29.619Z,0.80
2018-07-01T14:08:58.507Z,0.63
2018-07-01T14:11:27.441Z,0.70
2018-07-01T14:13:56.348Z,0.83
2018-07-01T14:16:25.217Z,0.57
2018-07-01T14:18:54.083Z,0.73
2018-07-01T14:21:22.984Z,0.87
2018-07-01T14:23:51.928Z,0.93
2018-07-01T14:26:20.823Z,1.00
2018-07-01T14:28:49.734Z,1.00
2018-07-01T14:31:18.695Z,1.10
2018-07-01T14:33:47.695Z,1.20
2018-07-01T14:36:16.677Z,1.00
2018-07-01T14:38:45.576Z,0.83
2018-07-01T14:41:14.620Z,1.20
2018-07-01T14:43:43.720Z,0.70
2018-07-01T14:46:12.597Z,0.90
2018-07-01T14:48:41.596Z,1.00
2018-07-01T14:51:10.600Z,0.90
2018-07-01T14:53:39.622Z,0.90
2018-07-01T14:56:08.576Z,0.70
2018-07-01T14:58:37.751Z,0.80
2018-07-01T15:01:07.007Z,0.80
2018-07-01T15:03:35.925Z,0.83
2018-07-01T15:06:05.939Z,0.83
2018-07-01T15:08:35.146Z,0.60
2018-07-01T15:11:04.155Z,0.70
2018-07-01T15:13:33.060Z,1.00
2018-07-01T15:16:02.054Z,0.90
2018-07-01T15:18:30.933Z,1.67
2018-07-01T15:20:59.935Z,1.27
2018-07-01T15:23:28.848Z,0.90
2018-07-01T15:25:57.993Z,0.73
2018-07-01T15:28:27.044Z,0.77
2018-07-01T15:30:56.181Z,0.90
2018-07-01T15:33:25.149Z,0.70
2018-07-01T15:35:54.051Z,0.80
2018-07-01T15:38:23.083Z,0.93
2018-07-01T15:40:51.963Z,0.70
2018-07-01T15:43:21.023Z,0.97
2018-07-01T15:45:50.104Z,1.20
2018-07-01T15:48:19.006Z,0.90
2018-07-01T15:50:47.980Z,1.00
2018-07-01T15:53:16.956Z,1.10
2018-07-01T15:55:45.864Z,1.10
2018-07-01T15:58:14.825Z,1.33
2018-07-01T16:00:43.908Z,0.87
2018-07-01T16:03:12.852Z,0.90
2018-07-01T16:05:41.745Z,1.03
2018-07-01T16:08:10.618Z,1.27
2018-07-01T16:10:39.512Z,1.53
2018-07-01T16:13:08.437Z,0.80
2018-07-01T16:15:37.298Z,1.20
2018-07-01T16:18:06.185Z,1.40
2018-07-01T16:20:35.169Z,1.00
2018-07-01T16:23:04.435Z,0.80
2018-07-01T16:25:33.507Z,1.10
2018-07-01T16:28:02.472Z,1.40
2018-07-01T16:30:31.415Z,0.70
2018-07-01T16:33:00.092Z,1.00
2018-07-01T16:35:28.800Z,0.90
2018-07-01T16:37:57.792Z,1.20
2018-07-01T16:40:26.785Z,0.73
2018-07-01T16:42:55.866Z,1.10
2018-07-01T16:45:24.833Z,0.93
2018-07-01T16:47:53.784Z,1.37
2018-07-01T16:50:22.861Z,0.90
2018-07-01T16:52:51.824Z,0.70
2018-07-01T16:55:20.832Z,0.63
2018-07-01T16:57:49.709Z,0.83
2018-07-01T17:00:18.607Z,0.70
2018-07-01T17:02:47.584Z,0.83
2018-07-01T17:05:16.549Z,0.77
2018-07-01T17:07:45.469Z,1.20
2018-07-01T17:10:14.360Z,1.00
2018-07-01T17:12:43.292Z,0.87
2018-07-01T17:15:12.228Z,0.90
2018-07-01T17:17:41.275Z,0.80
2018-07-01T17:20:10.291Z,0.70
2018-07-01T17:22:39.351Z,1.20
2018-07-01T17:25:08.095Z,0.60
2018-07-01T17:27:36.908Z,0.73
2018-07-01T17:30:05.865Z,0.60
2018-07-01T17:32:34.751Z,0.53
2018-07-01T17:35:03.889Z,0.83
2018-07-01T17:37:32.910Z,0.80
2018-07-01T17:40:02.061Z,1.20
2018-07-01T17:42:31.038Z,0.70
2018-07-01T17:44:59.881Z,0.70
2018-07-01T17:47:28.812Z,0.90
2018-07-01T17:49:57.885Z,0.60
2018-07-01T17:52:26.796Z,0.70
2018-07-01T17:54:55.740Z,2.50
2018-07-01T17:57:24.656Z,1.30
2018-07-01T17:59:53.663Z,0.93
2018-07-01T18:02:22.703Z,0.50
2018-07-01T18:04:51.716Z,0.60
2018-07-01T18:07:20.631Z,1.07
2018-07-01T18:09:49.596Z,0.90
2018-07-01T18:12:18.617Z,1.30
2018-07-01T18:14:47.515Z,0.60
2018-07-01T18:17:16.420Z,1.00
2018-07-01T18:19:45.330Z,1.60
2018-07-01T18:22:27.970Z,0.90
2018-07-01T18:24:58.072Z,1.00
2018-07-01T18:27:12.001Z,1.00
2018-07-01T18:29:40.911Z,0.80
2018-07-01T18:32:09.796Z,0.70
2018-07-01T18:34:38.724Z,1.00
2018-07-01T18:37:07.636Z,0.80
2018-07-01T18:39:36.676Z,1.03
2018-07-01T18:42:05.622Z,0.77
2018-07-01T18:44:34.373Z,0.80
2018-07-01T18:47:03.717Z,1.10
2018-07-01T18:49:32.493Z,1.30
2018-07-01T18:52:01.215Z,1.23
2018-07-01T18:54:30.117Z,1.10
2018-07-01T18:56:59.086Z,1.40
2018-07-01T18:59:28.027Z,1.57
2018-07-01T19:01:57.002Z,0.77
2018-07-01T19:04:25.940Z,0.90
2018-07-01T19:06:55.060Z,0.90
2018-07-01T19:09:24.212Z,1.20
2018-07-01T19:11:53.114Z,1.70
2018-07-01T19:14:22.017Z,1.60
2018-07-01T19:16:50.700Z,1.53
2018-07-01T19:19:19.530Z,1.50
2018-07-01T19:21:48.420Z,1.40
2018-07-01T19:24:17.347Z,1.53
2018-07-01T19:26:46.562Z,1.60
2018-07-01T19:29:15.479Z,1.00
2018-07-01T19:31:44.389Z,1.27
2018-07-01T19:34:13.524Z,1.50
2018-07-01T19:36:42.545Z,1.50
2018-07-01T19:39:11.505Z,1.40
2018-07-01T19:41:40.429Z,1.10
2018-07-01T19:44:09.399Z,1.20
2018-07-01T19:46:38.283Z,0.90
2018-07-01T19:49:07.194Z,1.10
2018-07-01T19:51:36.928Z,0.80
2018-07-01T19:54:05.878Z,0.80
2018-07-01T19:56:34.760Z,1.10
2018-07-01T19:59:03.833Z,0.93
2018-07-01T20:01:32.772Z,0.80
2018-07-01T20:04:01.726Z,1.00
2018-07-01T20:06:30.817Z,0.93
2018-07-01T20:08:59.783Z,0.93
2018-07-01T20:11:28.695Z,1.00
2018-07-01T20:13:57.592Z,1.00
2018-07-01T20:16:26.597Z,0.80
2018-07-01T20:18:55.487Z,0.90
2018-07-01T20:21:24.490Z,1.00
2018-07-01T20:23:53.410Z,0.90
2018-07-01T20:26:22.308Z,0.83
2018-07-01T20:28:51.428Z,0.97
2018-07-01T20:31:20.804Z,1.37
2018-07-01T20:33:49.941Z,0.80
2018-07-01T20:36:19.004Z,1.00
2018-07-01T20:38:48.488Z,1.13
2018-07-01T20:41:17.498Z,0.90
2018-07-01T20:43:46.587Z,0.70
2018-07-01T20:46:15.607Z,0.90
2018-07-01T20:48:44.602Z,1.00
2018-07-01T20:51:13.580Z,0.90
2018-07-01T20:53:42.561Z,1.03
2018-07-01T20:56:11.735Z,0.90
2018-07-01T20:58:40.372Z,0.80
2018-07-01T21:01:09.077Z,0.80
2018-07-01T21:03:38.060Z,1.20
2018-07-01T21:06:07.548Z,0.77
2018-07-01T21:08:36.628Z,0.90
2018-07-01T21:11:05.913Z,1.07
2018-07-01T21:13:35.392Z,1.10
2018-07-01T21:16:04.589Z,0.90
2018-07-01T21:18:33.535Z,0.90
2018-07-01T21:21:02.999Z,0.80
2018-07-01T21:23:32.314Z,0.90
2018-07-01T21:26:01.457Z,1.00
2018-07-01T21:28:30.452Z,0.80
2018-07-01T21:30:59.511Z,0.90
2018-07-01T21:33:28.597Z,0.87
2018-07-01T21:35:57.707Z,0.80
2018-07-01T21:38:26.759Z,1.30
2018-07-01T21:40:55.613Z,0.90
2018-07-01T21:43:24.654Z,0.90
2018-07-01T21:45:53.755Z,1.20
2018-07-01T21:48:22.692Z,1.10
2018-07-01T21:50:51.777Z,1.07
2018-07-01T21:53:20.680Z,1.03
2018-07-01T21:55:49.596Z,1.40
2018-07-01T21:58:18.512Z,1.20
2018-07-01T22:00:47.403Z,1.20
2018-07-01T22:03:17.972Z,0.80
2018-07-01T22:05:47.013Z,0.90
2018-07-01T22:08:16.240Z,1.10
2018-07-01T22:10:56.177Z,1.03
2018-07-01T22:14:28.856Z,0.80
2018-07-01T22:16:57.967Z,0.93
2018-07-01T22:19:26.972Z,0.97
2018-07-01T22:21:56.020Z,0.90
2018-07-01T22:24:25.475Z,0.87
2018-07-01T22:26:54.551Z,1.03
2018-07-01T22:29:23.491Z,0.80
2018-07-01T22:31:52.463Z,1.00
2018-07-01T22:34:21.392Z,1.10
2018-07-01T22:36:50.336Z,1.10
2018-07-01T22:39:19.272Z,0.80
2018-07-01T22:41:48.259Z,0.80
2018-07-01T22:44:17.249Z,0.90
2018-07-01T22:46:46.471Z,1.00
2018-07-01T22:49:15.351Z,0.70
2018-07-01T22:51:44.288Z,1.17
2018-07-01T22:54:13.231Z,1.10
2018-07-01T22:56:42.164Z,1.13
2018-07-01T22:59:11.167Z,1.00
2018-07-01T23:02:49.368Z,1.17
2018-07-01T23:05:18.011Z,1.50
2018-07-01T23:07:46.911Z,1.80
2018-07-01T23:10:16.009Z,1.60
2018-07-01T23:12:44.955Z,1.77
2018-07-01T23:15:13.857Z,2.40
2018-07-01T23:17:42.892Z,2.17
2018-07-01T23:20:11.964Z,2.70
2018-07-01T23:22:40.837Z,2.13
2018-07-01T23:25:10.001Z,2.80
2018-07-01T23:27:38.913Z,3.10
2018-07-01T23:30:07.893Z,2.60
2018-07-01T23:32:36.814Z,2.60
2018-07-01T23:35:05.838Z,3.00
2018-07-01T23:37:34.823Z,2.53
2018-07-01T23:40:04.241Z,2.97
2018-07-01T23:42:33.218Z,2.70
2018-07-01T23:45:02.157Z,3.00
2018-07-01T23:47:31.016Z,3.50
2018-07-01T23:49:59.906Z,3.57
2018-07-01T23:52:28.790Z,2.77
2018-07-01T23:54:57.919Z,2.87
2018-07-01T23:57:27.006Z,3.50
2018-07-01T23:59:55.986Z,3.27
